Time;durP1;ratioP1;P1;durP2;ratioP2;P2;SDS_P1;SDS_P2;PMS_P1;PMS_P2;Temp;Humidity;BMP_temperature;BMP_pressure;BME280_temperature;BME280_humidity;BME280_pressure;Samples;Min_cycle;Max_cycle;Signal;HPM_P1;HPM_P2
2022/09/16 00:01:20;;;;;;;;;;;;;;;14.29;76.44;100133.63;5008622;28;19921;-68
2022/09/16 00:03:47;;;;;;;;;;;;;;;14.08;76.93;100136.06;5007570;28;19921;-68
2022/09/16 00:06:16;;;;;;;;;;;;;;;14.24;76.40;100130.50;5007071;28;20273;-68
2022/09/16 00:08:44;;;;;;;;;;;;;;;14.08;77.27;100133.44;5007895;28;20400;-67
2022/09/16 00:11:10;;;;;;;;;;;;;;;14.10;77.25;100130.69;5007303;28;19952;-67
2022/09/16 00:13:37;;;;;;;;;;;;;;;14.01;77.47;100142.78;5007058;28;20020;-67
2022/09/16 00:16:06;;;;;;;;;;;;;;;14.15;76.66;100139.13;5008837;28;19922;-67
2022/09/16 00:18:33;;;;;;;;;;;;;;;14.08;77.07;100135.22;5006267;28;19921;-67
2022/09/16 00:20:59;;;;;;;;;;;;;;;13.82;78.27;100129.28;5006483;28;20010;-67
2022/09/16 00:23:25;;;;;;;;;;;;;;;13.90;78.30;100133.97;5008354;28;20385;-67
2022/09/16 00:25:53;;;;;;;;;;;;;;;14.12;76.21;100128.78;5007499;28;19968;-68
2022/09/16 00:28:20;;;;;;;;;;;;;;;14.12;76.54;100134.03;4986863;28;20011;-67
2022/09/16 00:30:46;;;;;;;;;;;;;;;14.04;76.78;100132.00;4988150;28;19922;-67
2022/09/16 00:33:13;;;;;;;;;;;;;;;14.11;76.53;100135.03;4999137;28;20022;-67
2022/09/16 00:35:39;;;;;;;;;;;;;;;13.83;77.68;100138.03;5006384;28;19921;-67
2022/09/16 00:38:06;;;;;;;;;;;;;;;13.69;78.40;100133.78;5007155;28;19991;-67
2022/09/16 00:40:32;;;;;;;;;;;;;;;13.55;79.17;100134.81;5004457;28;19922;-67
2022/09/16 00:43:00;;;;;;;;;;;;;;;13.52;78.99;100139.47;4997426;28;19968;-67
2022/09/16 00:45:30;;;;;;;;;;;;;;;13.29;79.97;100135.88;5000009;28;20573;-67
2022/09/16 00:47:57;;;;;;;;;;;;;;;13.24;80.44;100139.78;5002397;28;19922;-67
2022/09/16 00:50:31;;;;;;;;;;;;;;;13.52;78.98;100134.22;5005965;28;20360;-66
2022/09/16 00:52:59;;;;;;;;;;;;;;;13.88;77.21;100143.81;5006910;28;19921;-67
2022/09/16 00:55:27;;;;;;;;;;;;;;;13.81;77.55;100142.59;5007593;28;20027;-67
2022/09/16 00:57:55;;;;;;;;;;;;;;;13.86;77.36;100143.91;5005989;28;19945;-67
2022/09/16 01:00:23;;;;;;;;;;;;;;;13.46;79.20;100134.63;5004883;28;19960;-67
2022/09/16 01:02:49;;;;;;;;;;;;;;;13.53;79.10;100144.63;5007554;28;20348;-67
2022/09/16 01:05:18;;;;;;;;;;;;;;;13.75;77.97;100140.38;5005821;28;19960;-66
2022/09/16 01:07:45;;;;;;;;;;;;;;;13.80;77.47;100146.16;5005584;28;20340;-66
2022/09/16 01:10:12;;;;;;;;;;;;;;;13.77;77.66;100134.06;5006780;28;20435;-67
2022/09/16 01:12:39;;;;;;;;;;;;;;;13.91;76.99;100140.94;5005057;28;20421;-67
2022/09/16 01:15:06;;;;;;;;;;;;;;;13.81;77.85;100143.44;5005923;28;19968;-67
2022/09/16 01:17:42;;;;;;;;;;;;;;;13.87;77.32;100139.50;5008520;28;19921;-67
2022/09/16 01:20:23;;;;;;;;;;;;;;;13.75;77.74;100135.13;5005810;28;19971;-67
2022/09/16 01:23:01;;;;;;;;;;;;;;;13.55;78.82;100136.63;4995188;28;19960;-67
2022/09/16 01:25:37;;;;;;;;;;;;;;;13.32;80.25;100140.91;5007204;28;19965;-67
2022/09/16 01:28:21;;;;;;;;;;;;;;;13.48;79.41;100144.13;5007428;28;19921;-67
2022/09/16 01:30:53;;;;;;;;;;;;;;;13.62;78.68;100140.47;5006128;28;19922;-67
2022/09/16 01:33:27;;;;;;;;;;;;;;;13.79;77.83;100147.13;5007152;28;20355;-67
2022/09/16 01:36:03;;;;;;;;;;;;;;;13.51;79.53;100146.53;4999396;28;20316;-67
2022/09/16 01:38:38;;;;;;;;;;;;;;;13.65;78.61;100145.50;5006490;28;19921;-67
2022/09/16 01:41:08;;;;;;;;;;;;;;;13.45;79.36;100141.69;4999772;28;19960;-67
2022/09/16 01:43:41;;;;;;;;;;;;;;;13.59;78.87;100141.56;5006114;28;19925;-67
2022/09/16 01:46:12;;;;;;;;;;;;;;;13.79;77.82;100147.13;5004636;28;19983;-67
2022/09/16 01:48:42;;;;;;;;;;;;;;;13.80;77.67;100138.28;5004719;28;19921;-66
2022/09/16 01:51:14;;;;;;;;;;;;;;;13.71;77.92;100142.41;5005963;28;19921;-66
2022/09/16 01:53:45;;;;;;;;;;;;;;;13.52;78.35;100139.47;5003445;28;19921;-66
2022/09/16 01:56:16;;;;;;;;;;;;;;;13.16;80.78;100143.81;5006893;28;19944;-66
2022/09/16 01:58:46;;;;;;;;;;;;;;;13.21;80.27;100140.00;5004538;28;19967;-66
2022/09/16 02:01:16;;;;;;;;;;;;;;;13.05;81.39;100134.97;5005090;28;19922;-66
2022/09/16 02:03:45;;;;;;;;;;;;;;;13.18;80.70;100134.97;5009496;28;19984;-67
2022/09/16 02:06:15;;;;;;;;;;;;;;;13.48;78.98;100140.66;5004418;28;19991;-66
2022/09/16 02:08:44;;;;;;;;;;;;;;;13.49;78.92;100137.88;5004428;28;20296;-67
2022/09/16 02:11:13;;;;;;;;;;;;;;;13.46;78.97;100139.91;5003148;28;19926;-67
2022/09/16 02:13:41;;;;;;;;;;;;;;;13.55;78.52;100132.19;5004571;28;20317;-67
2022/09/16 02:16:11;;;;;;;;;;;;;;;13.64;78.08;100141.19;5006173;28;19922;-67
2022/09/16 02:18:40;;;;;;;;;;;;;;;13.43;78.83;100140.13;5003154;28;19976;-66
2022/09/16 02:21:09;;;;;;;;;;;;;;;13.57;78.28;100143.44;5005374;28;20558;-66
2022/09/16 02:23:38;;;;;;;;;;;;;;;13.49;78.47;100137.88;5006357;28;19921;-65
2022/09/16 02:26:06;;;;;;;;;;;;;;;13.41;78.14;100137.63;5003695;28;19922;-65
2022/09/16 02:28:34;;;;;;;;;;;;;;;13.43;78.48;100133.09;5004951;28;20000;-65
2022/09/16 02:31:02;;;;;;;;;;;;;;;13.39;78.34;100130.78;5005790;28;19968;-65
2022/09/16 02:33:30;;;;;;;;;;;;;;;13.53;77.64;100141.97;5005743;28;19921;-67
2022/09/16 02:35:59;;;;;;;;;;;;;;;13.64;77.01;100147.31;5004746;28;19925;-67
2022/09/16 02:38:28;;;;;;;;;;;;;;;13.61;77.42;100141.41;5006451;28;20439;-66
2022/09/16 02:40:55;;;;;;;;;;;;;;;13.77;76.39;100133.22;5005625;28;20014;-66
2022/09/16 02:43:22;;;;;;;;;;;;;;;13.96;76.02;100136.19;5005873;28;19968;-66
2022/09/16 02:45:52;;;;;;;;;;;;;;;13.60;76.65;100137.94;5005831;28;19925;-67
2022/09/16 02:48:24;;;;;;;;;;;;;;;13.42;77.91;100139.28;5007003;28;19928;-67
2022/09/16 02:50:53;;;;;;;;;;;;;;;13.52;77.40;100145.59;4996222;28;19925;-67
2022/09/16 02:53:26;;;;;;;;;;;;;;;13.39;77.78;100139.53;4995495;28;19921;-66
2022/09/16 02:55:54;;;;;;;;;;;;;;;13.41;77.31;100137.63;4997929;28;19921;-66
2022/09/16 02:58:21;;;;;;;;;;;;;;;13.43;78.06;100140.13;5002530;28;19921;-66
2022/09/16 03:00:49;;;;;;;;;;;;;;;13.43;78.05;100140.13;5000040;28;20388;-66
2022/09/16 03:03:15;;;;;;;;;;;;;;;13.20;78.58;100144.44;4997809;28;19921;-67
2022/09/16 03:05:59;;;;;;;;;;;;;;;13.15;79.37;100141.31;5001807;28;19925;-66
2022/09/16 03:08:26;;;;;;;;;;;;;;;13.19;79.02;100142.78;5006186;28;20309;-66
2022/09/16 03:10:53;;;;;;;;;;;;;;;13.37;78.62;100141.44;5004728;28;19953;-66
2022/09/16 03:13:22;;;;;;;;;;;;;;;13.48;77.80;100132.75;5007800;28;19921;-66
2022/09/16 03:15:55;;;;;;;;;;;;;;;13.61;77.33;100137.00;5008953;28;20432;-66
2022/09/16 03:18:36;;;;;;;;;;;;;;;13.74;76.79;100139.56;5009625;28;19932;-67
2022/09/16 03:21:06;;;;;;;;;;;;;;;13.51;77.08;100129.88;4998500;28;20533;-67
2022/09/16 03:23:43;;;;;;;;;;;;;;;13.70;76.64;100134.66;5010360;28;19991;-67
2022/09/16 03:26:15;;;;;;;;;;;;;;;13.77;77.03;100130.59;5008744;28;19936;-67
2022/09/16 03:28:45;;;;;;;;;;;;;;;13.60;77.49;100131.81;5008470;28;19960;-67
2022/09/16 03:31:13;;;;;;;;;;;;;;;13.75;77.02;100130.69;4988224;28;19925;-67
2022/09/16 03:33:41;;;;;;;;;;;;;;;13.94;75.69;100130.16;5005027;28;19961;-67
2022/09/16 03:36:09;;;;;;;;;;;;;;;13.92;76.13;100129.47;5008638;28;19968;-68
2022/09/16 03:38:38;;;;;;;;;;;;;;;13.61;77.03;100123.81;5005992;28;19922;-68
2022/09/16 03:41:06;;;;;;;;;;;;;;;13.61;77.22;100123.81;5002112;28;19974;-68
2022/09/16 03:43:32;;;;;;;;;;;;;;;13.77;76.74;100120.06;4996006;28;19975;-68
2022/09/16 03:45:59;;;;;;;;;;;;;;;13.70;76.85;100122.31;5007183;28;19922;-68
2022/09/16 03:48:25;;;;;;;;;;;;;;;13.50;77.31;100123.78;5004007;28;19961;-68
2022/09/16 03:50:51;;;;;;;;;;;;;;;13.46;77.92;100113.56;5007688;28;19968;-68
2022/09/16 03:53:18;;;;;;;;;;;;;;;13.49;77.52;100114.19;5007393;28;19972;-67
2022/09/16 03:55:47;;;;;;;;;;;;;;;13.43;77.70;100116.44;5007518;28;20005;-67
2022/09/16 03:58:14;;;;;;;;;;;;;;;13.63;76.78;100111.38;5009725;28;19952;-67
2022/09/16 04:00:40;;;;;;;;;;;;;;;13.45;77.39;100118.00;5007505;28;20309;-67
2022/09/16 04:03:06;;;;;;;;;;;;;;;13.65;76.73;100114.75;5007829;28;19921;-67
2022/09/16 04:05:32;;;;;;;;;;;;;;;13.08;79.39;100113.72;5007782;28;19921;-67
2022/09/16 04:07:58;;;;;;;;;;;;;;;12.96;79.64;100104.91;5006808;28;20373;-67
2022/09/16 04:10:25;;;;;;;;;;;;;;;13.07;79.45;100112.03;5007125;28;19979;-67
2022/09/16 04:12:55;;;;;;;;;;;;;;;13.11;79.44;100108.25;5008653;28;19945;-67
2022/09/16 04:15:22;;;;;;;;;;;;;;;13.13;79.05;100114.22;5007994;28;19976;-67
2022/09/16 04:17:48;;;;;;;;;;;;;;;13.24;79.07;100110.81;5008169;28;19948;-67
2022/09/16 04:20:14;;;;;;;;;;;;;;;12.97;79.88;100105.75;5003358;28;20377;-67
2022/09/16 04:22:40;;;;;;;;;;;;;;;13.22;78.70;100108.31;5007680;28;20011;-67
2022/09/16 04:25:07;;;;;;;;;;;;;;;13.03;79.41;100100.03;5008939;28;20342;-67
2022/09/16 04:27:34;;;;;;;;;;;;;;;12.89;80.28;100100.19;5004643;28;20396;-67
2022/09/16 04:30:01;;;;;;;;;;;;;;;13.14;79.42;100103.59;5006056;28;19922;-67
2022/09/16 04:32:27;;;;;;;;;;;;;;;13.35;78.22;100097.72;5007351;28;19929;-67
2022/09/16 04:34:54;;;;;;;;;;;;;;;13.35;78.28;100098.56;5008280;28;19961;-67
2022/09/16 04:37:20;;;;;;;;;;;;;;;12.82;81.02;100107.69;5007094;28;19925;-66
2022/09/16 04:39:46;;;;;;;;;;;;;;;12.83;80.59;100108.50;5005920;28;19940;-67
2022/09/16 04:42:13;;;;;;;;;;;;;;;12.93;80.80;100099.00;4992829;28;19928;-68
2022/09/16 04:44:39;;;;;;;;;;;;;;;12.87;81.12;100105.53;4987483;28;19921;-68
2022/09/16 04:47:07;;;;;;;;;;;;;;;13.02;80.29;100108.88;4987917;28;19922;-68
2022/09/16 04:49:33;;;;;;;;;;;;;;;13.06;79.63;100107.69;4989604;28;19969;-67
2022/09/16 04:51:59;;;;;;;;;;;;;;;13.16;79.58;100099.06;5005004;28;19973;-67
2022/09/16 04:54:25;;;;;;;;;;;;;;;13.04;79.85;100106.97;5007163;28;19922;-67
2022/09/16 04:56:52;;;;;;;;;;;;;;;13.13;79.24;100107.19;5007931;28;19925;-67
2022/09/16 04:59:18;;;;;;;;;;;;;;;13.36;78.15;100102.03;5005377;28;19928;-67
2022/09/16 05:01:44;;;;;;;;;;;;;;;13.49;77.51;100108.91;4993453;28;20397;-67
2022/09/16 05:04:12;;;;;;;;;;;;;;;13.26;78.43;100111.56;5006313;28;20378;-67
2022/09/16 05:06:40;;;;;;;;;;;;;;;13.02;79.39;100111.50;4997130;28;19983;-66
2022/09/16 05:09:06;;;;;;;;;;;;;;;12.99;79.68;100109.94;4995483;28;19921;-67
2022/09/16 05:11:34;;;;;;;;;;;;;;;13.27;78.54;100113.22;4982771;28;19972;-67
2022/09/16 05:14:01;;;;;;;;;;;;;;;13.09;79.30;100110.09;5005132;28;19921;-67
2022/09/16 05:16:28;;;;;;;;;;;;;;;12.94;80.13;100108.56;5007497;28;19976;-67
2022/09/16 05:18:55;;;;;;;;;;;;;;;12.95;80.65;100112.88;5005216;28;19921;-67
2022/09/16 05:21:23;;;;;;;;;;;;;;;13.05;80.34;100113.91;5004353;28;19975;-67
2022/09/16 05:23:49;;;;;;;;;;;;;;;13.48;79.06;100115.16;5005904;28;20549;-67
2022/09/16 05:26:17;;;;;;;;;;;;;;;13.53;78.86;100115.63;5006755;28;19944;-67
2022/09/16 05:28:43;;;;;;;;;;;;;;;13.91;76.84;100120.69;5005279;28;19948;-67
2022/09/16 05:31:11;;;;;;;;;;;;;;;14.17;75.92;100116.09;5007338;28;19922;-67
2022/09/16 05:33:37;;;;;;;;;;;;;;;14.68;73.98;100113.03;5004644;28;19987;-67
2022/09/16 05:36:04;;;;;;;;;;;;;;;14.98;73.11;100100.91;5004304;28;19921;-67
2022/09/16 05:38:32;;;;;;;;;;;;;;;15.04;71.98;100102.19;5006209;28;19921;-67
2022/09/16 05:40:59;;;;;;;;;;;;;;;15.05;71.80;100103.88;5004943;28;19929;-68
2022/09/16 05:43:25;;;;;;;;;;;;;;;14.93;71.82;100104.84;5004606;28;19972;-67
2022/09/16 05:45:51;;;;;;;;;;;;;;;14.87;72.33;100105.34;5005492;28;19921;-68
2022/09/16 05:48:18;;;;;;;;;;;;;;;14.74;72.69;100110.78;5001209;28;19949;-68
2022/09/16 05:50:50;;;;;;;;;;;;;;;14.19;74.66;100119.44;4993902;28;19937;-68
2022/09/16 05:53:16;;;;;;;;;;;;;;;14.36;75.00;100116.41;4999089;28;19925;-68
2022/09/16 05:55:53;;;;;;;;;;;;;;;14.85;73.36;100109.94;5004906;28;19925;-68
2022/09/16 05:58:19;;;;;;;;;;;;;;;15.17;72.40;100110.00;4995561;28;19933;-68
2022/09/16 06:00:46;;;;;;;;;;;;;;;15.51;70.55;100108.97;5003594;28;20371;-68
2022/09/16 06:03:12;;;;;;;;;;;;;;;15.57;70.21;100111.94;5000272;28;19928;-68
2022/09/16 06:05:38;;;;;;;;;;;;;;;15.71;68.96;100112.59;5003518;28;19921;-68
2022/09/16 06:08:05;;;;;;;;;;;;;;;15.22;71.15;100107.84;5004667;28;19991;-68
2022/09/16 06:10:31;;;;;;;;;;;;;;;14.98;71.50;100108.81;5005472;28;19925;-68
2022/09/16 06:12:58;;;;;;;;;;;;;;;15.04;71.29;100110.13;5003402;28;20294;-68
2022/09/16 06:15:25;;;;;;;;;;;;;;;14.79;72.37;100098.03;5004685;28;19956;-68
2022/09/16 06:17:51;;;;;;;;;;;;;;;14.92;72.22;100103.22;5005093;28;20344;-68
2022/09/16 06:20:17;;;;;;;;;;;;;;;14.68;72.53;100103.34;5000727;28;19960;-69
2022/09/16 06:22:43;;;;;;;;;;;;;;;14.49;73.64;100116.28;5004425;28;19937;-69
2022/09/16 06:25:09;;;;;;;;;;;;;;;14.59;73.44;100112.84;5005362;28;19922;-69
2022/09/16 06:27:36;;;;;;;;;;;;;;;14.78;73.04;100114.84;5003657;28;19921;-69
2022/09/16 06:30:04;;;;;;;;;;;;;;;14.47;73.56;100116.41;5003089;28;19926;-69
2022/09/16 06:32:30;;;;;;;;;;;;;;;14.34;73.66;100106.88;5006233;28;19922;-69
2022/09/16 06:34:57;;;;;;;;;;;;;;;14.26;74.50;100109.28;5003287;28;19922;-69
2022/09/16 06:37:23;;;;;;;;;;;;;;;14.41;74.55;100105.50;5004870;28;19983;-69
2022/09/16 06:39:49;;;;;;;;;;;;;;;15.19;72.40;100103.63;4970871;28;999956;-69
2022/09/16 06:42:15;;;;;;;;;;;;;;;15.03;72.24;100100.53;5005154;28;20432;-69
2022/09/16 06:44:42;;;;;;;;;;;;;;;15.32;71.11;100109.59;5006505;28;19972;-69
2022/09/16 06:47:09;;;;;;;;;;;;;;;15.29;70.94;100101.09;5001447;28;19929;-69
2022/09/16 06:49:36;;;;;;;;;;;;;;;14.99;70.89;100097.31;5002707;28;20382;-69
2022/09/16 06:52:02;;;;;;;;;;;;;;;14.66;72.85;100091.22;5003978;28;19921;-69
2022/09/16 06:54:28;;;;;;;;;;;;;;;14.47;74.09;100108.50;5003628;28;19983;-69
2022/09/16 06:56:54;;;;;;;;;;;;;;;14.75;73.43;100096.59;4985576;28;19922;-69
2022/09/16 06:59:21;;;;;;;;;;;;;;;15.05;72.72;100093.31;4987943;28;19939;-69
2022/09/16 07:01:47;;;;;;;;;;;;;;;15.03;72.24;100100.53;4999749;28;20278;-69
2022/09/16 07:04:14;;;;;;;;;;;;;;;14.94;72.19;100096.00;5004469;28;19941;-69
2022/09/16 07:06:41;;;;;;;;;;;;;;;15.25;71.97;100095.22;4992425;28;19987;-70
2022/09/16 07:09:07;;;;;;;;;;;;;;;14.89;72.51;100098.19;5002865;28;19932;-69
2022/09/16 07:11:34;;;;;;;;;;;;;;;14.91;72.10;100097.09;5003878;28;19931;-69
2022/09/16 07:14:01;;;;;;;;;;;;;;;14.74;72.41;100102.03;5001602;28;19975;-69
2022/09/16 07:16:27;;;;;;;;;;;;;;;14.84;71.75;100089.78;5001561;28;20020;-69
2022/09/16 07:18:53;;;;;;;;;;;;;;;15.09;71.51;100102.69;5003180;28;20531;-69
2022/09/16 07:21:23;;;;;;;;;;;;;;;15.14;71.80;100103.16;5004001;28;19921;-69
2022/09/16 07:23:49;;;;;;;;;;;;;;;15.13;72.58;100101.47;5001333;28;19921;-69
2022/09/16 07:26:17;;;;;;;;;;;;;;;15.46;70.70;100105.81;5001510;28;19979;-69
2022/09/16 07:28:45;;;;;;;;;;;;;;;15.48;70.83;100106.56;5004889;28;20357;-69
2022/09/16 07:31:12;;;;;;;;;;;;;;;15.34;71.37;100107.66;4986758;28;20400;-69
2022/09/16 07:33:39;;;;;;;;;;;;;;;15.84;69.93;100105.34;4996253;28;19984;-70
2022/09/16 07:36:06;;;;;;;;;;;;;;;15.95;70.15;100115.84;5004206;28;20393;-70
2022/09/16 07:38:34;;;;;;;;;;;;;;;15.69;69.87;100109.25;4990236;28;19929;-69
2022/09/16 07:41:05;;;;;;;;;;;;;;;15.81;68.52;100114.38;5001562;28;20010;-69
2022/09/16 07:43:31;;;;;;;;;;;;;;;15.71;68.49;100108.16;5005452;28;19921;-69
2022/09/16 07:45:57;;;;;;;;;;;;;;;15.75;68.57;100119.31;5000078;28;19971;-69
2022/09/16 07:48:24;;;;;;;;;;;;;;;15.81;68.82;100118.81;5004533;28;20435;-69
2022/09/16 07:50:54;;;;;;;;;;;;;;;15.80;68.73;100117.97;5006767;28;20298;-68
2022/09/16 07:53:20;;;;;;;;;;;;;;;15.71;68.89;100118.72;4998808;28;20360;-68
2022/09/16 07:55:48;;;;;;;;;;;;;;;15.73;68.15;100132.66;5006192;28;19925;-69
2022/09/16 07:58:14;;;;;;;;;;;;;;;15.87;68.61;100121.78;5003516;28;20030;-68
2022/09/16 08:00:42;;;;;;;;;;;;;;;15.66;67.82;100122.72;5001617;28;19925;-68
2022/09/16 08:03:08;;;;;;;;;;;;;;;15.98;68.00;100121.72;5006324;28;19996;-68
2022/09/16 08:05:35;;;;;;;;;;;;;;;16.03;67.16;100122.19;5008493;28;19930;-68
2022/09/16 08:08:01;;;;;;;;;;;;;;;16.17;67.00;100118.38;5008517;28;19945;-68
2022/09/16 08:10:27;;;;;;;;;;;;;;;15.80;67.84;100117.13;5006797;28;19948;-68
2022/09/16 08:12:55;;;;;;;;;;;;;;;15.92;66.67;100110.84;5000272;28;20023;-68
2022/09/16 08:15:21;;;;;;;;;;;;;;;16.06;66.58;100123.72;4999917;28;20297;-68
2022/09/16 08:17:47;;;;;;;;;;;;;;;17.10;63.83;100113.81;4992646;28;20325;-68
2022/09/16 08:20:14;;;;;;;;;;;;;;;17.78;61.66;100118.22;4987829;28;19973;-68
2022/09/16 08:22:40;;;;;;;;;;;;;;;18.12;58.45;100126.56;4993750;28;19945;-69
2022/09/16 08:25:06;;;;;;;;;;;;;;;18.19;57.08;100117.06;4993343;28;20397;-68
2022/09/16 08:27:34;;;;;;;;;;;;;;;18.46;58.94;100121.59;5001403;28;19942;-68
2022/09/16 08:30:02;;;;;;;;;;;;;;;18.14;56.71;100121.13;5006474;28;19921;-68
2022/09/16 08:32:29;;;;;;;;;;;;;;;18.75;56.54;100125.03;4999017;28;19928;-68
2022/09/16 08:34:56;;;;;;;;;;;;;;;19.52;53.82;100123.78;4999629;28;20009;-68
2022/09/16 08:37:22;;;;;;;;;;;;;;;19.48;53.78;100117.09;5007722;28;19921;-68
2022/09/16 08:39:49;;;;;;;;;;;;;;;19.65;53.94;100114.44;5004925;28;19921;-68
2022/09/16 08:42:30;;;;;;;;;;;;;;;19.12;52.57;100117.00;4997314;28;19921;-67
2022/09/16 08:45:09;;;;;;;;;;;;;;;19.92;53.44;100119.66;4999880;28;19953;-68
2022/09/16 08:47:41;;;;;;;;;;;;;;;19.28;51.67;100116.38;5007027;28;19925;-68
2022/09/16 08:50:12;;;;;;;;;;;;;;;19.29;54.47;100118.84;5006928;28;19921;-68
2022/09/16 08:52:39;;;;;;;;;;;;;;;19.17;54.88;100113.91;4999858;28;19949;-68
2022/09/16 08:55:09;;;;;;;;;;;;;;;19.21;53.80;100124.09;5007122;28;19929;-68
2022/09/16 08:57:42;;;;;;;;;;;;;;;18.62;53.92;100124.53;5002375;28;19969;-69
2022/09/16 09:00:14;;;;;;;;;;;;;;;18.57;54.00;100115.31;5004062;28;20381;-69
2022/09/16 09:02:42;;;;;;;;;;;;;;;19.21;55.35;100110.81;5007636;28;19925;-68
2022/09/16 09:05:14;;;;;;;;;;;;;;;19.09;52.87;100111.16;5006019;28;19945;-68
2022/09/16 09:07:47;;;;;;;;;;;;;;;19.10;52.42;100112.84;5006263;28;19922;-69
2022/09/16 09:10:18;;;;;;;;;;;;;;;18.91;51.65;100121.75;5004543;28;19990;-69
2022/09/16 09:12:47;;;;;;;;;;;;;;;18.28;52.58;100132.13;5006699;28;19929;-69
2022/09/16 09:15:23;;;;;;;;;;;;;;;17.63;53.78;100118.78;4997762;28;19921;-69
2022/09/16 09:17:55;;;;;;;;;;;;;;;17.56;54.82;100121.13;5006674;28;20266;-69
2022/09/16 09:20:30;;;;;;;;;;;;;;;17.65;55.40;100116.84;5004779;28;19968;-69
2022/09/16 09:23:04;;;;;;;;;;;;;;;18.26;52.52;100127.94;4998391;28;20011;-69
2022/09/16 09:25:36;;;;;;;;;;;;;;;18.31;51.78;100121.22;5004655;28;20337;-68
2022/09/16 09:28:09;;;;;;;;;;;;;;;18.82;50.76;100120.81;5005254;28;19925;-67
2022/09/16 09:30:38;;;;;;;;;;;;;;;19.76;48.77;100116.03;5006197;28;19995;-67
2022/09/16 09:33:13;;;;;;;;;;;;;;;19.41;47.37;100114.16;5006364;28;19957;-67
2022/09/16 09:35:48;;;;;;;;;;;;;;;19.78;47.18;100106.91;5006034;28;19925;-67
2022/09/16 09:38:32;;;;;;;;;;;;;;;19.62;45.62;100113.91;5005657;28;20341;-67
2022/09/16 09:41:03;;;;;;;;;;;;;;;19.84;47.57;100118.78;5007186;28;19971;-67
2022/09/16 09:43:31;;;;;;;;;;;;;;;20.55;46.20;100105.31;5005870;28;20358;-67
2022/09/16 09:46:01;;;;;;;;;;;;;;;21.06;43.08;100091.06;4998682;28;19929;-67
2022/09/16 09:48:30;;;;;;;;;;;;;;;20.61;44.30;100097.53;5002922;28;19922;-67
2022/09/16 09:51:01;;;;;;;;;;;;;;;19.98;43.25;100094.28;5005819;28;19983;-67
2022/09/16 09:53:31;;;;;;;;;;;;;;;19.56;44.22;100099.41;5005120;28;19922;-67
2022/09/16 09:56:00;;;;;;;;;;;;;;;19.33;45.98;100093.66;5004458;28;20354;-67
2022/09/16 09:58:28;;;;;;;;;;;;;;;20.06;44.61;100096.16;5006675;28;20021;-67
2022/09/16 10:00:56;;;;;;;;;;;;;;;20.60;43.47;100090.53;5004907;28;19929;-67
2022/09/16 10:03:24;;;;;;;;;;;;;;;21.46;43.03;100083.19;5005386;28;20001;-67
2022/09/16 10:05:50;;;;;;;;;;;;;;;21.82;39.65;100089.88;4994036;28;19925;-68
2022/09/16 10:08:21;;;;;;;;;;;;;;;21.64;40.03;100091.88;4995860;28;19921;-67
2022/09/16 10:10:50;;;;;;;;;;;;;;;21.38;42.05;100083.16;5004970;28;19976;-67
2022/09/16 10:13:18;;;;;;;;;;;;;;;22.41;44.85;100081.66;5001983;28;19921;-67
2022/09/16 10:15:44;;;;;;;;;;;;;;;22.18;38.71;100079.69;5002206;28;20301;-68
2022/09/16 10:18:13;;;;;;;;;;;;;;;22.57;37.52;100081.59;5003637;28;19975;-68
2022/09/16 10:20:42;;;;;;;;;;;;;;;21.89;39.98;100090.03;5003254;28;20000;-68
2022/09/16 10:23:10;;;;;;;;;;;;;;;21.24;41.02;100079.31;5000674;28;19921;-68
2022/09/16 10:25:37;;;;;;;;;;;;;;;21.14;42.33;100078.59;5005826;28;20446;-68
2022/09/16 10:28:04;;;;;;;;;;;;;;;21.20;41.08;100072.63;5000563;28;19921;-68
2022/09/16 10:30:33;;;;;;;;;;;;;;;21.10;41.76;100077.22;4985737;28;19961;-68
2022/09/16 10:33:00;;;;;;;;;;;;;;;21.87;43.00;100072.53;4993316;28;19922;-69
2022/09/16 10:35:27;;;;;;;;;;;;;;;22.68;39.49;100070.56;5000206;28;20004;-68
2022/09/16 10:37:56;;;;;;;;;;;;;;;22.69;37.28;100062.38;4985230;28;20015;-68
2022/09/16 10:40:23;;;;;;;;;;;;;;;21.97;38.89;100068.72;4994112;28;20000;-68
2022/09/16 10:42:50;;;;;;;;;;;;;;;21.32;39.30;100073.16;5004634;28;20365;-67
2022/09/16 10:45:22;;;;;;;;;;;;;;;20.83;40.30;100075.66;5006055;28;19964;-67
2022/09/16 10:47:50;;;;;;;;;;;;;;;20.48;40.64;100074.97;5005526;28;19945;-67
2022/09/16 10:50:17;;;;;;;;;;;;;;;20.29;40.67;100071.53;4997404;28;20360;-67
2022/09/16 10:52:44;;;;;;;;;;;;;;;20.60;41.76;100071.88;4984816;28;19922;-68
2022/09/16 10:55:20;;;;;;;;;;;;;;;21.06;39.02;100059.06;4985357;28;19922;-67
2022/09/16 10:57:46;;;;;;;;;;;;;;;21.61;39.90;100059.34;4990974;28;19921;-68
2022/09/16 11:00:14;;;;;;;;;;;;;;;22.22;36.93;100051.66;5006172;28;19933;-67
2022/09/16 11:02:49;;;;;;;;;;;;;;;22.88;38.52;100050.44;5003845;28;19928;-68
2022/09/16 11:05:18;;;;;;;;;;;;;;;23.33;36.40;100043.47;5004899;28;19960;-68
2022/09/16 11:07:49;;;;;;;;;;;;;;;23.59;35.27;100049.34;5005368;28;20030;-68
2022/09/16 11:10:23;;;;;;;;;;;;;;;23.81;38.82;100043.13;5004513;28;19921;-68
2022/09/16 11:13:04;;;;;;;;;;;;;;;23.88;35.88;100028.00;5006194;28;20304;-68
2022/09/16 11:15:35;;;;;;;;;;;;;;;23.29;35.21;100033.13;5006035;28;19925;-69
2022/09/16 11:18:09;;;;;;;;;;;;;;;23.73;36.81;100052.06;5006040;28;19933;-70
2022/09/16 11:20:44;;;;;;;;;;;;;;;24.11;35.46;100038.66;4991231;28;19984;-69
2022/09/16 11:23:15;;;;;;;;;;;;;;;22.93;35.19;100036.53;5009047;28;19948;-69
2022/09/16 11:25:48;;;;;;;;;;;;;;;22.54;35.49;100039.22;5006988;28;20328;-68
2022/09/16 11:28:21;;;;;;;;;;;;;;;22.59;36.02;100052.88;5008253;28;19921;-68
2022/09/16 11:30:52;;;;;;;;;;;;;;;22.28;36.70;100048.28;5001446;28;20435;-67
2022/09/16 11:33:22;;;;;;;;;;;;;;;22.50;36.24;100040.56;5009118;28;19981;-69
2022/09/16 11:36:11;;;;;;;;;;;;;;;21.57;37.06;100042.00;4999407;28;19956;-69
2022/09/16 11:38:40;;;;;;;;;;;;;;;21.85;39.89;100043.31;5010705;28;19925;-69
2022/09/16 11:41:14;;;;;;;;;;;;;;;22.47;38.11;100027.56;5007663;28;19921;-69
2022/09/16 11:43:49;;;;;;;;;;;;;;;22.47;35.96;100024.88;5006501;28;20572;-68
2022/09/16 11:46:19;;;;;;;;;;;;;;;22.07;34.93;100034.66;5008578;28;19961;-69
2022/09/16 11:48:54;;;;;;;;;;;;;;;21.29;35.92;100036.13;5008072;28;20115;-69
2022/09/16 11:51:27;;;;;;;;;;;;;;;21.07;37.13;100037.56;5009093;28;19921;-68
2022/09/16 11:54:01;;;;;;;;;;;;;;;20.57;37.82;100031.41;5001274;28;19936;-69
2022/09/16 11:56:34;;;;;;;;;;;;;;;19.70;38.81;100035.00;4990097;28;19922;-69
2022/09/16 11:59:04;;;;;;;;;;;;;;;19.56;40.19;100030.25;4995629;28;19921;-69
2022/09/16 12:01:32;;;;;;;;;;;;;;;19.15;40.27;100029.00;5005844;28;19921;-70
2022/09/16 12:04:00;;;;;;;;;;;;;;;19.16;41.04;100032.50;5007009;28;19971;-69
2022/09/16 12:06:30;;;;;;;;;;;;;;;18.73;42.62;100023.44;4982159;28;19926;-69
2022/09/16 12:08:58;;;;;;;;;;;;;;;18.62;42.16;100028.09;4995333;28;19925;-69
2022/09/16 12:11:31;;;;;;;;;;;;;;;19.18;43.07;100036.69;5006115;28;19921;-69
2022/09/16 12:14:01;;;;;;;;;;;;;;;20.04;41.79;100029.78;5004243;28;19984;-69
2022/09/16 12:16:31;;;;;;;;;;;;;;;19.56;40.16;100018.78;5009707;28;20417;-69
2022/09/16 12:18:59;;;;;;;;;;;;;;;19.42;40.10;100023.66;4999805;28;19925;-68
2022/09/16 12:21:27;;;;;;;;;;;;;;;19.06;41.11;100026.44;5006291;28;19971;-69
2022/09/16 12:23:57;;;;;;;;;;;;;;;19.35;42.24;100029.72;5007503;28;19957;-69
2022/09/16 12:26:26;;;;;;;;;;;;;;;19.36;41.02;100020.75;5008613;28;19921;-69
2022/09/16 12:28:55;;;;;;;;;;;;;;;19.79;39.78;100022.63;5006467;28;19921;-69
2022/09/16 12:31:28;;;;;;;;;;;;;;;20.51;40.39;100011.56;5007518;28;20012;-68
2022/09/16 12:33:57;;;;;;;;;;;;;;;20.85;40.12;100003.53;5006388;28;19921;-69
2022/09/16 12:36:25;;;;;;;;;;;;;;;21.36;37.58;100003.31;5008045;28;19980;-69
2022/09/16 12:38:51;;;;;;;;;;;;;;;21.42;38.66;100009.81;5007368;28;19921;-69
2022/09/16 12:41:29;;;;;;;;;;;;;;;21.06;37.37;100000.44;5001210;28;19976;-69
2022/09/16 12:44:05;;;;;;;;;;;;;;;21.28;37.68;99994.50;5003253;28;19972;-69